createdAt,value
2023-02-03T00:01:44.779Z,64.10
2023-02-03T00:07:03.042Z,63.80
2023-02-03T00:09:32.344Z,63.88
2023-02-03T00:12:00.516Z,64.25
2023-02-03T00:14:35.255Z,63.65
2023-02-03T00:17:03.282Z,64.02
2023-02-03T00:19:31.277Z,63.85
2023-02-03T00:22:00.134Z,64.26
2023-02-03T00:24:28.577Z,64.19
2023-02-03T00:26:56.641Z,63.88
2023-02-03T00:29:26.669Z,64.39
2023-02-03T00:31:58.975Z,64.16
2023-02-03T00:34:30.861Z,63.89
2023-02-03T00:36:59.440Z,64.53
2023-02-03T00:39:27.587Z,64.33
2023-02-03T00:41:56.624Z,64.19
2023-02-03T00:44:24.926Z,64.27
2023-02-03T00:46:53.458Z,63.98
2023-02-03T00:49:23.783Z,64.47
2023-02-03T00:51:52.310Z,64.49
2023-02-03T00:54:20.655Z,64.26
2023-02-03T00:56:49.471Z,64.38
2023-02-03T00:59:18.031Z,64.03
2023-02-03T01:01:46.108Z,64.46
2023-02-03T01:04:15.066Z,64.08
2023-02-03T01:06:44.779Z,64.24
2023-02-03T01:09:13.354Z,63.95
2023-02-03T01:11:42.005Z,64.50
2023-02-03T01:14:10.487Z,64.09
2023-02-03T01:16:38.833Z,63.98
2023-02-03T01:19:08.077Z,64.18
2023-02-03T01:21:37.305Z,64.17
2023-02-03T01:24:07.301Z,64.34
2023-02-03T01:26:36.038Z,64.22
2023-02-03T01:29:04.595Z,64.58
2023-02-03T01:31:35.546Z,63.88
2023-02-03T01:34:05.511Z,64.32
2023-02-03T01:36:35.532Z,64.18
2023-02-03T01:39:04.418Z,64.13
2023-02-03T01:41:36.768Z,64.39
2023-02-03T01:44:48.028Z,64.06
2023-02-03T01:47:26.709Z,63.92
2023-02-03T01:50:01.087Z,64.08
2023-02-03T01:52:31.095Z,63.67
2023-02-03T01:55:02.148Z,63.79
2023-02-03T01:57:38.299Z,63.94
2023-02-03T02:00:08.543Z,64.00
2023-02-03T02:02:39.554Z,63.83
2023-02-03T02:05:13.367Z,63.76
2023-02-03T02:07:43.074Z,63.77
2023-02-03T02:10:11.632Z,63.42
2023-02-03T02:12:42.559Z,63.58
2023-02-03T02:15:11.977Z,63.74
2023-02-03T02:18:06.736Z,63.58
2023-02-03T02:20:54.443Z,63.15
2023-02-03T02:23:56.024Z,63.28
2023-02-03T02:26:45.148Z,63.08
2023-02-03T02:29:50.576Z,63.03
2023-02-03T02:32:32.844Z,63.24
2023-02-03T02:35:09.119Z,63.04
2023-02-03T02:37:52.477Z,62.84
2023-02-03T02:40:29.201Z,62.63
2023-02-03T02:43:08.393Z,62.53
2023-02-03T02:45:45.765Z,62.87
2023-02-03T02:48:23.415Z,62.30
2023-02-03T02:50:55.205Z,62.56
2023-02-03T02:53:27.844Z,62.65
2023-02-03T02:55:58.645Z,62.58
2023-02-03T03:01:19.314Z,62.45
2023-02-03T03:03:49.955Z,62.13
2023-02-03T03:06:23.387Z,62.15
2023-02-03T03:08:57.227Z,62.58
2023-02-03T03:11:30.034Z,62.37
2023-02-03T03:13:58.741Z,62.42
2023-02-03T03:16:31.642Z,62.56
2023-02-03T03:19:04.116Z,62.55
2023-02-03T03:21:37.760Z,62.37
2023-02-03T03:24:10.968Z,62.49
2023-02-03T03:26:47.628Z,62.11
2023-02-03T03:29:21.073Z,62.65
2023-02-03T03:31:50.852Z,62.39
2023-02-03T03:34:22.514Z,62.30
2023-02-03T03:37:00.453Z,62.12
2023-02-03T03:39:36.935Z,62.09
2023-02-03T03:42:12.565Z,62.35
2023-02-03T03:44:46.421Z,62.20
2023-02-03T03:47:25.809Z,61.99
2023-02-03T03:49:59.080Z,61.72
2023-02-03T03:52:32.247Z,61.46
2023-02-03T03:55:02.617Z,61.43
2023-02-03T03:57:36.610Z,61.85
2023-02-03T04:00:07.563Z,61.65
2023-02-03T04:02:38.626Z,61.73
2023-02-03T04:05:11.487Z,61.68
2023-02-03T04:10:33.376Z,61.92
2023-02-03T04:13:02.330Z,61.45
2023-02-03T04:15:31.461Z,61.48
2023-02-03T04:18:01.750Z,61.16
2023-02-03T04:20:32.955Z,61.10
2023-02-03T04:23:01.334Z,61.49
2023-02-03T04:25:29.543Z,61.33
2023-02-03T04:27:58.606Z,61.63
2023-02-03T04:30:27.471Z,61.48
2023-02-03T04:32:55.876Z,61.03
2023-02-03T04:35:24.630Z,61.25
2023-02-03T04:37:55.391Z,61.05
2023-02-03T04:40:23.503Z,61.40
2023-02-03T04:42:52.462Z,61.26
2023-02-03T04:45:21.248Z,60.97
2023-02-03T04:47:54.981Z,60.68
2023-02-03T04:50:23.226Z,60.99
2023-02-03T04:52:52.122Z,60.76
2023-02-03T04:55:22.689Z,60.89
2023-02-03T04:57:50.784Z,60.62
2023-02-03T05:00:19.505Z,60.64
2023-02-03T05:02:48.205Z,60.41
2023-02-03T05:05:16.404Z,60.64
2023-02-03T05:07:44.785Z,60.46
2023-02-03T05:10:13.757Z,60.70
2023-02-03T05:12:44.610Z,60.77
2023-02-03T05:15:12.902Z,60.52
2023-02-03T05:17:42.123Z,61.26
2023-02-03T05:20:11.806Z,60.61
2023-02-03T05:22:39.774Z,60.76
2023-02-03T05:25:09.792Z,60.88
2023-02-03T05:27:41.463Z,60.91
2023-02-03T05:30:14.121Z,61.11
2023-02-03T05:32:42.343Z,60.50
2023-02-03T05:35:10.227Z,60.34
2023-02-03T05:37:38.980Z,60.46
2023-02-03T05:40:27.270Z,60.34
2023-02-03T05:42:56.271Z,60.50
2023-02-03T05:45:33.527Z,60.60
2023-02-03T05:48:03.290Z,60.44
2023-02-03T05:50:33.367Z,60.56
2023-02-03T05:53:01.375Z,60.62
2023-02-03T05:55:31.282Z,60.67
2023-02-03T05:58:01.121Z,60.79
2023-02-03T06:00:31.395Z,60.72
2023-02-03T06:03:02.452Z,60.65
2023-02-03T06:05:41.180Z,60.70
2023-02-03T06:08:09.899Z,60.67
2023-02-03T06:10:38.136Z,60.47
2023-02-03T06:13:12.657Z,60.58
2023-02-03T06:15:43.810Z,60.72
2023-02-03T06:18:12.070Z,60.66
2023-02-03T06:20:40.425Z,60.60
2023-02-03T06:23:08.815Z,60.81
2023-02-03T06:25:44.123Z,61.01
2023-02-03T06:28:16.520Z,60.98
2023-02-03T06:31:01.345Z,60.52
2023-02-03T06:33:31.094Z,60.34
2023-02-03T06:36:01.946Z,60.68
2023-02-03T06:38:30.370Z,60.78
2023-02-03T06:40:59.046Z,60.75
2023-02-03T06:43:27.828Z,60.51
2023-02-03T06:46:03.617Z,60.32
2023-02-03T06:48:32.877Z,60.81
2023-02-03T06:51:01.630Z,60.29
2023-02-03T06:53:29.794Z,60.45
2023-02-03T06:55:58.701Z,60.37
2023-02-03T06:58:27.007Z,60.73
2023-02-03T07:00:57.198Z,60.64
2023-02-03T07:07:14.714Z,60.73
2023-02-03T07:13:30.850Z,61.05
2023-02-03T07:15:59.261Z,60.89
2023-02-03T07:18:46.242Z,61.09
2023-02-03T07:21:17.122Z,61.38
2023-02-03T07:23:48.216Z,61.12
2023-02-03T07:26:17.632Z,60.90
2023-02-03T07:28:45.895Z,61.00
2023-02-03T07:31:14.106Z,61.03
2023-02-03T07:33:43.292Z,61.26
2023-02-03T07:36:11.951Z,60.91
2023-02-03T07:38:41.049Z,61.12
2023-02-03T07:41:10.577Z,60.83
2023-02-03T07:43:39.228Z,60.94
2023-02-03T07:46:08.155Z,60.83
2023-02-03T07:48:38.081Z,61.09
2023-02-03T07:51:06.785Z,61.51
2023-02-03T07:53:34.767Z,61.54
2023-02-03T07:56:03.567Z,61.47
2023-02-03T07:58:33.874Z,61.28
2023-02-03T08:01:01.999Z,61.25
2023-02-03T08:03:30.431Z,61.64
2023-02-03T08:05:58.786Z,61.60
2023-02-03T08:08:26.696Z,61.59
2023-02-03T08:10:57.892Z,61.57
2023-02-03T08:13:25.721Z,61.37
2023-02-03T08:15:55.638Z,61.37
2023-02-03T08:18:25.411Z,61.69
2023-02-03T08:20:53.478Z,61.89
2023-02-03T08:23:21.621Z,61.84
2023-02-03T08:25:52.979Z,61.38
2023-02-03T08:28:21.686Z,61.80
2023-02-03T08:30:49.780Z,61.64
2023-02-03T08:33:20.028Z,61.68
2023-02-03T08:35:49.525Z,61.80
2023-02-03T08:38:17.873Z,61.76
2023-02-03T08:40:46.689Z,61.11
2023-02-03T08:43:14.703Z,61.66
2023-02-03T08:45:43.025Z,61.23
2023-02-03T08:48:11.839Z,61.44
2023-02-03T08:50:52.304Z,61.38
2023-02-03T08:53:21.116Z,61.75
2023-02-03T08:55:49.605Z,61.14
2023-02-03T08:58:18.085Z,61.53
2023-02-03T09:00:49.459Z,61.68
2023-02-03T09:03:17.894Z,61.54
2023-02-03T09:05:47.610Z,61.16
2023-02-03T09:08:16.034Z,61.41
2023-02-03T09:10:44.695Z,60.86
2023-02-03T09:13:12.738Z,61.40
2023-02-03T09:15:41.183Z,61.11
2023-02-03T09:18:09.178Z,61.04
2023-02-03T09:20:37.408Z,61.20
2023-02-03T09:23:07.980Z,60.94
2023-02-03T09:25:36.086Z,60.74
2023-02-03T09:28:04.541Z,61.15
2023-02-03T09:33:22.633Z,60.92
2023-02-03T09:35:54.548Z,61.12
2023-02-03T09:38:25.165Z,60.94
2023-02-03T09:41:09.334Z,61.26
2023-02-03T09:43:44.919Z,60.78
2023-02-03T09:46:16.748Z,60.80
2023-02-03T09:48:48.619Z,60.83
2023-02-03T09:51:22.564Z,60.63
2023-02-03T09:53:59.058Z,60.81
2023-02-03T09:56:31.330Z,60.53
2023-02-03T09:58:59.810Z,61.02
2023-02-03T10:01:36.626Z,61.12
2023-02-03T10:04:27.966Z,61.15
2023-02-03T10:07:07.193Z,60.88
2023-02-03T10:09:56.467Z,61.18
2023-02-03T10:12:49.068Z,60.84
2023-02-03T10:15:32.890Z,60.76
2023-02-03T10:18:06.298Z,60.59
2023-02-03T10:20:39.691Z,60.50
2023-02-03T10:23:14.046Z,60.93
2023-02-03T10:25:47.877Z,61.17
2023-02-03T10:28:19.713Z,60.76
2023-02-03T10:30:51.313Z,60.59
2023-02-03T10:33:22.108Z,60.74
2023-02-03T10:35:53.679Z,60.55
2023-02-03T10:38:36.862Z,60.67
2023-02-03T10:41:07.242Z,60.91
2023-02-03T10:43:51.951Z,60.79
2023-02-03T10:46:23.589Z,60.71
2023-02-03T10:48:51.784Z,60.81
2023-02-03T10:51:23.887Z,61.01
2023-02-03T10:53:53.477Z,60.72
2023-02-03T10:56:25.600Z,60.94
2023-02-03T10:58:56.486Z,60.34
2023-02-03T11:01:28.961Z,60.93
2023-02-03T11:04:01.614Z,60.66
2023-02-03T11:06:30.880Z,60.55
2023-02-03T11:08:59.390Z,60.94
2023-02-03T11:11:35.852Z,60.51
2023-02-03T11:14:17.648Z,60.42
2023-02-03T11:16:47.692Z,60.93
2023-02-03T11:19:19.408Z,60.89
2023-02-03T11:21:50.271Z,60.43
2023-02-03T11:24:22.176Z,60.40
2023-02-03T11:26:56.208Z,61.00
2023-02-03T11:29:28.512Z,60.75
2023-02-03T11:31:58.988Z,60.86
2023-02-03T11:34:30.083Z,60.83
2023-02-03T11:36:58.441Z,60.68
2023-02-03T11:39:30.355Z,60.70
2023-02-03T11:41:59.983Z,61.23
2023-02-03T11:44:31.698Z,61.31
2023-02-03T11:47:03.864Z,62.18
2023-02-03T11:50:00.001Z,62.05
2023-02-03T11:52:46.633Z,62.54
2023-02-03T11:55:33.145Z,63.30
2023-02-03T11:58:18.101Z,63.04
2023-02-03T12:00:56.691Z,62.74
2023-02-03T12:03:58.360Z,63.07
2023-02-03T12:06:51.737Z,62.98
2023-02-03T12:09:29.366Z,63.50
2023-02-03T12:12:22.273Z,63.28
2023-02-03T12:15:05.875Z,63.42
2023-02-03T12:17:47.263Z,63.01
2023-02-03T12:20:28.186Z,62.92
2023-02-03T12:23:06.596Z,62.92
2023-02-03T12:25:48.991Z,62.90
2023-02-03T12:28:34.095Z,62.75
2023-02-03T12:31:09.007Z,62.49
2023-02-03T12:33:44.853Z,63.32
2023-02-03T12:36:17.014Z,62.82
2023-02-03T12:38:52.276Z,63.05
2023-02-03T12:41:24.316Z,63.24
2023-02-03T12:43:56.836Z,62.81
2023-02-03T12:46:31.822Z,62.08
2023-02-03T12:49:04.814Z,62.58
2023-02-03T12:51:40.313Z,62.31
2023-02-03T12:54:27.470Z,62.94
2023-02-03T12:56:59.661Z,62.75
2023-02-03T12:59:31.850Z,62.56
2023-02-03T13:02:13.812Z,62.30
2023-02-03T13:04:48.445Z,62.57
2023-02-03T13:07:26.318Z,62.54
2023-02-03T13:10:01.507Z,62.22
2023-02-03T13:12:33.134Z,62.58
2023-02-03T13:15:12.005Z,62.34
2023-02-03T13:17:49.958Z,62.15
2023-02-03T13:20:22.766Z,61.91
2023-02-03T13:22:53.097Z,62.24
2023-02-03T13:25:25.860Z,62.13
2023-02-03T13:28:03.945Z,61.75
2023-02-03T13:30:57.673Z,62.43
2023-02-03T13:33:55.583Z,62.33
2023-02-03T13:36:52.133Z,62.17
2023-02-03T13:39:46.233Z,61.80
2023-02-03T13:42:23.515Z,62.35
2023-02-03T13:44:56.348Z,62.11
2023-02-03T13:47:28.046Z,62.04
2023-02-03T13:49:59.912Z,61.79
2023-02-03T13:52:35.636Z,61.98
2023-02-03T13:55:04.953Z,62.11
2023-02-03T13:57:38.605Z,61.53
2023-02-03T14:00:29.594Z,61.60
2023-02-03T14:02:58.545Z,61.91
2023-02-03T14:05:55.188Z,61.74
2023-02-03T14:08:52.843Z,61.80
2023-02-03T14:11:46.644Z,61.61
2023-02-03T14:14:45.049Z,61.96
2023-02-03T14:17:50.628Z,61.95
2023-02-03T14:20:45.537Z,61.86
2023-02-03T14:23:19.741Z,61.59
2023-02-03T14:25:53.995Z,62.25
2023-02-03T14:28:27.396Z,61.82
2023-02-03T14:31:22.671Z,61.75
2023-02-03T14:34:07.976Z,61.86
2023-02-03T14:36:40.738Z,61.46
2023-02-03T14:39:37.035Z,61.48
2023-02-03T14:42:14.962Z,61.98
2023-02-03T14:44:52.841Z,61.62
2023-02-03T14:47:30.780Z,61.62
2023-02-03T14:50:13.329Z,61.48
2023-02-03T14:53:01.068Z,61.53
2023-02-03T14:55:43.424Z,61.50
2023-02-03T14:58:28.638Z,61.56
2023-02-03T15:01:00.092Z,61.40
2023-02-03T15:03:31.140Z,61.35
2023-02-03T15:06:02.551Z,61.25
2023-02-03T15:08:50.347Z,61.55
2023-02-03T15:11:30.574Z,60.76
2023-02-03T15:14:21.121Z,60.47
2023-02-03T15:16:55.166Z,60.54
2023-02-03T15:19:26.195Z,60.83
2023-02-03T15:21:54.503Z,60.16
2023-02-03T15:24:24.293Z,60.40
2023-02-03T15:26:54.190Z,60.67
2023-02-03T15:29:33.437Z,60.23
2023-02-03T15:32:07.863Z,60.38
2023-02-03T15:34:40.113Z,60.47
2023-02-03T15:37:14.838Z,60.09
2023-02-03T15:39:50.771Z,60.29
2023-02-03T15:42:25.606Z,59.84
2023-02-03T15:45:02.413Z,59.44
2023-02-03T15:47:36.115Z,60.11
2023-02-03T15:50:17.116Z,59.81
2023-02-03T15:52:48.842Z,59.29
2023-02-03T15:55:29.258Z,59.93
2023-02-03T15:57:57.986Z,60.11
2023-02-03T16:00:50.366Z,59.76
2023-02-03T16:03:21.977Z,60.24
2023-02-03T16:05:50.469Z,59.79
2023-02-03T16:08:38.173Z,59.88
2023-02-03T16:11:41.755Z,59.66
2023-02-03T16:14:13.354Z,59.84
2023-02-03T16:16:58.833Z,59.97
2023-02-03T16:19:38.565Z,59.64
2023-02-03T16:22:26.594Z,59.81
2023-02-03T16:24:55.196Z,59.45
2023-02-03T16:27:33.257Z,59.93
2023-02-03T16:30:42.078Z,60.17
2023-02-03T16:33:44.382Z,60.04
2023-02-03T16:36:32.445Z,59.56
2023-02-03T16:39:25.717Z,59.75
2023-02-03T16:42:17.554Z,60.16
2023-02-03T16:45:03.321Z,60.15
2023-02-03T16:47:51.652Z,59.92
2023-02-03T16:50:40.272Z,59.72
2023-02-03T16:53:14.474Z,60.10
2023-02-03T16:55:43.027Z,60.24
2023-02-03T16:58:12.663Z,60.13
2023-02-03T17:00:42.015Z,60.00
2023-02-03T17:03:12.229Z,60.37
2023-02-03T17:05:44.231Z,59.82
2023-02-03T17:08:12.909Z,60.41
2023-02-03T17:10:42.648Z,59.94
2023-02-03T17:13:11.208Z,60.46
2023-02-03T17:15:42.431Z,60.36
2023-02-03T17:18:10.658Z,60.24
2023-02-03T17:20:39.436Z,60.19
2023-02-03T17:23:09.701Z,60.22
2023-02-03T17:25:39.968Z,60.72
2023-02-03T17:28:11.074Z,60.27
2023-02-03T17:30:39.281Z,60.67
2023-02-03T17:33:12.613Z,60.63
2023-02-03T17:35:45.571Z,60.79
2023-02-03T17:38:16.487Z,60.78
2023-02-03T17:54:41.503Z,60.53
2023-02-03T17:57:09.517Z,60.88
2023-02-03T17:59:37.869Z,60.39
2023-02-03T18:02:06.616Z,60.75
2023-02-03T18:04:35.018Z,61.22
2023-02-03T18:07:03.711Z,61.25
2023-02-03T18:09:34.330Z,61.38
2023-02-03T18:12:16.333Z,60.97
2023-02-03T18:14:55.224Z,61.34
2023-02-03T18:17:32.791Z,61.11
2023-02-03T18:20:06.460Z,61.09
2023-02-03T18:23:03.356Z,61.26
2023-02-03T18:25:32.459Z,61.13
2023-02-03T18:28:02.306Z,61.41
2023-02-03T18:30:32.353Z,61.55
2023-02-03T18:33:02.156Z,61.64
2023-02-03T18:35:31.995Z,61.08
2023-02-03T18:38:02.929Z,61.09
2023-02-03T18:40:31.507Z,61.27
2023-02-03T18:43:02.335Z,60.93
2023-02-03T18:45:31.403Z,61.74
2023-02-03T18:47:59.658Z,61.53
2023-02-03T18:50:28.876Z,61.48
2023-02-03T18:52:58.141Z,62.01
2023-02-03T18:55:26.618Z,62.23
2023-02-03T18:57:54.710Z,62.40
2023-02-03T19:00:26.818Z,62.35
2023-02-03T19:02:55.383Z,62.26
2023-02-03T19:05:24.374Z,62.30
2023-02-03T19:07:53.024Z,62.43
2023-02-03T19:10:21.766Z,62.38
2023-02-03T19:12:50.382Z,62.47
2023-02-03T19:15:20.120Z,62.36
2023-02-03T19:17:49.833Z,62.14
2023-02-03T19:20:19.341Z,61.80
2023-02-03T19:22:48.542Z,62.07
2023-02-03T19:25:16.884Z,62.30
2023-02-03T19:27:45.654Z,62.14
2023-02-03T19:30:18.498Z,62.33
2023-02-03T19:32:46.840Z,62.61
2023-02-03T19:35:16.987Z,62.24
2023-02-03T19:37:45.802Z,62.88
2023-02-03T19:40:14.185Z,62.58
2023-02-03T19:42:42.448Z,62.33
2023-02-03T19:45:11.788Z,62.90
2023-02-03T19:47:39.924Z,63.05
2023-02-03T19:50:08.298Z,62.61
2023-02-03T19:52:41.326Z,62.61
2023-02-03T19:55:10.021Z,63.23
2023-02-03T19:57:38.419Z,63.03
2023-02-03T20:00:08.617Z,63.41
2023-02-03T20:02:37.028Z,63.48
2023-02-03T20:05:05.652Z,63.46
2023-02-03T20:07:34.201Z,63.36
2023-02-03T20:10:04.801Z,63.28
2023-02-03T20:12:32.888Z,63.36
2023-02-03T20:15:01.581Z,63.61
2023-02-03T20:17:30.071Z,63.90
2023-02-03T20:19:58.242Z,63.83
2023-02-03T20:22:27.301Z,64.07
2023-02-03T20:24:57.103Z,63.82
2023-02-03T20:27:27.928Z,64.07
2023-02-03T20:29:55.897Z,64.64
2023-02-03T20:32:25.823Z,64.22
2023-02-03T20:34:54.794Z,64.51
2023-02-03T20:37:23.389Z,64.48
2023-02-03T20:39:51.500Z,65.14
2023-02-03T20:42:20.050Z,64.99
2023-02-03T20:44:49.935Z,64.86
2023-02-03T20:47:21.901Z,64.95
2023-02-03T20:49:51.234Z,64.78
2023-02-03T20:52:22.532Z,65.42
2023-02-03T20:54:50.698Z,65.09
2023-02-03T20:57:20.690Z,65.33
2023-02-03T20:59:51.028Z,65.38
2023-02-03T21:02:22.898Z,65.18
2023-02-03T21:10:24.694Z,65.18
2023-02-03T21:12:54.075Z,65.54
2023-02-03T21:15:28.393Z,65.62
2023-02-03T21:17:56.787Z,66.09
2023-02-03T21:20:31.377Z,65.65
2023-02-03T21:22:59.901Z,65.56
2023-02-03T21:25:31.247Z,65.85
2023-02-03T21:28:00.597Z,65.87
2023-02-03T21:30:33.671Z,65.94
2023-02-03T21:33:06.637Z,65.92
2023-02-03T21:35:37.492Z,66.06
2023-02-03T21:38:28.776Z,65.83
2023-02-03T21:40:57.498Z,66.18
2023-02-03T21:43:26.322Z,66.08
2023-02-03T21:45:56.446Z,66.16
2023-02-03T21:48:29.421Z,66.46
2023-02-03T21:50:59.011Z,66.41
2023-02-03T21:53:32.179Z,66.16
2023-02-03T21:56:17.045Z,66.07
2023-02-03T22:01:38.869Z,66.14
2023-02-03T22:04:06.919Z,66.53
2023-02-03T22:06:45.258Z,66.13
2023-02-03T22:09:15.074Z,66.49
2023-02-03T22:11:43.475Z,66.25
2023-02-03T22:14:12.496Z,66.63
2023-02-03T22:16:43.165Z,66.01
2023-02-03T22:19:12.131Z,66.20
2023-02-03T22:21:40.655Z,66.13
2023-02-03T22:24:09.054Z,66.67
2023-02-03T22:26:39.968Z,66.82
2023-02-03T22:29:08.682Z,66.79
2023-02-03T22:31:37.702Z,66.55
2023-02-03T22:34:08.811Z,66.26
2023-02-03T22:36:37.018Z,66.61
2023-02-03T22:39:05.597Z,66.73
2023-02-03T22:41:34.116Z,66.48
2023-02-03T22:44:03.176Z,66.31
2023-02-03T22:46:31.432Z,66.21
2023-02-03T22:48:59.999Z,66.25
2023-02-03T22:51:29.877Z,66.80
2023-02-03T22:53:58.156Z,66.57
2023-02-03T22:56:26.269Z,66.61
2023-02-03T22:58:55.211Z,66.30
2023-02-03T23:01:24.006Z,66.22
2023-02-03T23:03:52.198Z,66.76
2023-02-03T23:06:20.360Z,66.35
2023-02-03T23:08:51.493Z,66.44
2023-02-03T23:11:19.895Z,66.32
2023-02-03T23:13:48.753Z,66.66
2023-02-03T23:16:17.527Z,66.54
2023-02-03T23:18:45.721Z,66.89
2023-02-03T23:21:14.210Z,66.55
2023-02-03T23:23:42.961Z,66.37
2023-02-03T23:26:12.901Z,66.13
2023-02-03T23:28:41.318Z,66.11
2023-02-03T23:31:09.890Z,66.63
2023-02-03T23:33:38.225Z,66.82
2023-02-03T23:36:05.729Z,66.21
2023-02-03T23:38:36.715Z,66.24
2023-02-03T23:41:04.880Z,66.65
2023-02-03T23:43:34.704Z,66.74
2023-02-03T23:46:04.815Z,66.22
2023-02-03T23:48:33.031Z,66.79
2023-02-03T23:51:01.872Z,66.81
2023-02-03T23:53:31.098Z,67.04
2023-02-03T23:55:59.685Z,66.94
2023-02-03T23:58:27.970Z,66.97
